Time;durP1;ratioP1;P1;durP2;ratioP2;P2;SDS_P1;SDS_P2;PMS_P1;PMS_P2;Temp;Humidity;BMP_temperature;BMP_pressure;BME280_temperature;BME280_humidity;BME280_pressure;Samples;Min_cycle;Max_cycle;Signal;HPM_P1;HPM_P2
2023/03/25 00:00:17;;;;;;;4.50;3.97;;;12.60;99.90;;;;;;5095005;28;20556;-76
2023/03/25 00:02:47;;;;;;;5.03;4.20;;;12.60;99.90;;;;;;5095009;28;20676;-77
2023/03/25 00:05:15;;;;;;;2.90;2.60;;;12.50;99.90;;;;;;5093078;28;20227;-76
2023/03/25 00:07:46;;;;;;;5.18;3.92;;;12.50;99.90;;;;;;5095113;28;20255;-76
2023/03/25 00:10:14;;;;;;;4.45;3.75;;;12.50;99.90;;;;;;5093118;28;20337;-79
2023/03/25 00:12:42;;;;;;;3.75;2.60;;;12.50;99.90;;;;;;5093550;28;20231;-78
2023/03/25 00:15:12;;;;;;;4.05;3.38;;;12.50;99.90;;;;;;5080036;28;20311;-77
2023/03/25 00:17:39;;;;;;;2.80;2.60;;;12.40;99.90;;;;;;5074180;28;20649;-77
2023/03/25 00:20:09;;;;;;;6.05;4.22;;;12.40;99.90;;;;;;5075788;28;20227;-78
2023/03/25 00:22:39;;;;;;;5.72;3.78;;;12.40;99.90;;;;;;5094718;28;20281;-77
2023/03/25 00:25:07;;;;;;;4.30;3.85;;;12.30;99.90;;;;;;5094061;28;20563;-78
2023/03/25 00:27:35;;;;;;;9.10;5.25;;;12.30;99.90;;;;;;5094225;28;20241;-78
2023/03/25 00:30:05;;;;;;;8.75;3.85;;;12.30;99.90;;;;;;5094238;28;20231;-79
2023/03/25 00:32:34;;;;;;;6.30;5.13;;;12.30;99.90;;;;;;5093803;28;20223;-79
2023/03/25 00:35:01;;;;;;;5.68;5.07;;;12.20;99.90;;;;;;5093738;28;20227;-77
2023/03/25 00:37:29;;;;;;;2.95;2.75;;;12.20;99.90;;;;;;5093547;28;20251;-78
2023/03/25 00:39:56;;;;;;;3.67;3.00;;;12.20;99.90;;;;;;5093716;28;20231;-77
2023/03/25 00:42:27;;;;;;;3.20;2.22;;;12.10;99.90;;;;;;5094068;28;20311;-77
2023/03/25 00:44:54;;;;;;;4.40;4.00;;;12.10;99.90;;;;;;5094410;28;20672;-79
2023/03/25 00:47:25;;;;;;;5.82;3.80;;;12.10;99.90;;;;;;5093398;28;20662;-79
2023/03/25 00:49:56;;;;;;;8.30;7.47;;;12.00;99.90;;;;;;5094374;28;20238;-79
2023/03/25 00:52:23;;;;;;;5.13;3.75;;;12.00;99.90;;;;;;5093517;28;20536;-79
2023/03/25 00:54:51;;;;;;;4.57;3.35;;;11.90;99.90;;;;;;5093254;27;20648;-78
2023/03/25 00:57:18;;;;;;;2.65;1.95;;;12.00;99.90;;;;;;5085232;28;20239;-79
2023/03/25 00:59:45;;;;;;;6.25;3.63;;;12.00;99.90;;;;;;5094333;28;20330;-79
2023/03/25 01:02:12;;;;;;;2.95;2.35;;;12.00;99.90;;;;;;5093794;28;20230;-77
2023/03/25 01:04:44;;;;;;;14.20;7.95;;;11.90;99.90;;;;;;5072773;28;20224;-79
2023/03/25 01:07:14;;;;;;;27.67;19.13;;;12.00;99.90;;;;;;5062348;28;20499;-77
2023/03/25 01:09:45;;;;;;;7.43;4.75;;;11.90;99.90;;;;;;5075535;28;20212;-79
2023/03/25 01:12:12;;;;;;;8.68;5.90;;;11.90;99.90;;;;;;5094265;28;20231;-77
2023/03/25 01:14:40;;;;;;;10.68;9.70;;;11.90;99.90;;;;;;5093057;28;20230;-77
2023/03/25 01:17:07;;;;;;;5.75;3.60;;;11.90;99.90;;;;;;5093531;28;20240;-79
2023/03/25 01:19:34;;;;;;;10.52;8.90;;;11.90;99.90;;;;;;5092823;28;20673;-79
2023/03/25 01:22:03;;;;;;;7.47;5.22;;;11.90;99.90;;;;;;5088577;28;20227;-79
2023/03/25 01:24:30;;;;;;;4.72;2.33;;;11.90;99.90;;;;;;5103427;28;20302;-79
2023/03/25 01:26:58;;;;;;;6.18;3.67;;;11.90;99.90;;;;;;5093592;28;20305;-80
2023/03/25 01:29:28;;;;;;;11.13;6.25;;;11.80;99.90;;;;;;5093824;28;20219;-78
2023/03/25 01:31:54;;;;;;;6.78;5.10;;;11.80;99.90;;;;;;5092637;28;20219;-78
2023/03/25 01:34:22;;;;;;;9.95;5.47;;;11.80;99.90;;;;;;5093501;28;20211;-77
2023/03/25 01:36:49;;;;;;;6.05;4.82;;;11.80;99.90;;;;;;5093124;28;20249;-79
2023/03/25 01:39:20;;;;;;;2.90;2.30;;;11.80;99.90;;;;;;5092833;28;20306;-77
2023/03/25 01:41:49;;;;;;;41.85;29.20;;;11.80;99.90;;;;;;5092204;28;20288;-79
2023/03/25 01:45:21;;;;;;;3.83;3.33;;;11.80;99.90;;;;;;5098611;28;20224;-79
2023/03/25 01:47:52;;;;;;;4.50;2.53;;;11.80;99.90;;;;;;4962517;28;20302;-79
2023/03/25 01:50:20;;;;;;;5.90;3.28;;;11.70;99.90;;;;;;5018344;28;20240;-79
2023/03/25 01:52:51;;;;;;;4.00;3.40;;;11.80;99.90;;;;;;5057554;28;20240;-78
2023/03/25 01:55:20;;;;;;;5.32;3.05;;;11.70;99.90;;;;;;5083579;28;20234;-79
2023/03/25 01:57:48;;;;;;;18.35;12.57;;;11.70;99.90;;;;;;5092354;28;20238;-77
2023/03/25 02:00:16;;;;;;;6.20;4.95;;;11.70;99.90;;;;;;5092825;28;20294;-79
2023/03/25 02:02:45;;;;;;;10.48;9.50;;;11.70;99.90;;;;;;5093201;28;20219;-79
2023/03/25 02:05:20;;;;;;;12.60;7.60;;;11.70;99.90;;;;;;5079514;28;20557;-79
2023/03/25 02:07:53;;;;;;;13.60;9.15;;;11.70;99.90;;;;;;5071823;28;20711;-79
2023/03/25 02:10:23;;;;;;;6.13;4.90;;;11.70;99.90;;;;;;5081080;28;20704;-79
2023/03/25 02:12:50;;;;;;;4.45;4.05;;;11.70;99.90;;;;;;5084273;28;20231;-77
2023/03/25 02:15:19;;;;;;;7.57;4.95;;;11.70;99.90;;;;;;5092043;28;20226;-78
2023/03/25 02:18:03;;;;;;;3.75;2.97;;;11.70;99.90;;;;;;5092032;28;24949;-78
2023/03/25 02:21:10;;;;;;;6.13;4.50;;;11.60;99.90;;;;;;5092130;28;20307;-78
2023/03/25 02:24:06;;;;;;;6.85;2.80;;;11.60;99.90;;;;;;5087691;28;20626;-78
2023/03/25 02:26:56;;;;;;;4.53;3.83;;;11.60;99.90;;;;;;5084612;28;20672;-80
2023/03/25 02:29:41;;;;;;;9.77;5.78;;;11.60;99.90;;;;;;5074084;28;20704;-77
2023/03/25 02:32:19;;;;;;;5.63;4.40;;;11.70;99.90;;;;;;5078360;28;20225;-79
2023/03/25 02:35:14;;;;;;;5.32;3.70;;;11.70;99.90;;;;;;5082945;28;20226;-78
2023/03/25 02:38:20;;;;;;;3.00;2.70;;;11.70;99.90;;;;;;5071202;28;20227;-77
2023/03/25 02:40:57;;;;;;;4.32;3.20;;;11.70;99.90;;;;;;5078630;28;20261;-77
2023/03/25 02:43:31;;;;;;;2.35;2.15;;;11.70;99.90;;;;;;5091858;28;20227;-77
2023/03/25 02:46:03;;;;;;;2.72;1.77;;;11.70;99.90;;;;;;5090469;28;20218;-79
2023/03/25 02:48:36;;;;;;;10.40;7.32;;;11.70;99.90;;;;;;5058012;28;20265;-78
2023/03/25 02:51:09;;;;;;;9.13;6.40;;;11.70;99.90;;;;;;5068243;28;20227;-76
2023/03/25 02:53:39;;;;;;;17.70;12.25;;;11.80;99.90;;;;;;5074785;28;20302;-76
2023/03/25 02:56:10;;;;;;;8.70;7.20;;;11.90;99.90;;;;;;5068655;28;20249;-76
2023/03/25 02:58:39;;;;;;;28.05;18.77;;;11.90;99.90;;;;;;5077144;28;20224;-77
2023/03/25 03:01:08;;;;;;;4.30;3.58;;;12.00;99.90;;;;;;5075700;28;20619;-78
2023/03/25 03:03:36;;;;;;;2.92;2.47;;;12.00;99.90;;;;;;5075932;28;20657;-80
2023/03/25 03:06:06;;;;;;;6.97;4.88;;;12.10;99.90;;;;;;5076527;28;20223;-78
2023/03/25 03:08:47;;;;;;;8.05;5.70;;;12.00;99.90;;;;;;5074311;28;20224;-79
2023/03/25 03:11:26;;;;;;;11.10;3.95;;;12.10;99.90;;;;;;5060415;28;20267;-80
2023/03/25 03:14:03;;;;;;;11.40;7.95;;;12.10;99.90;;;;;;5070242;28;20220;-78
2023/03/25 03:16:37;;;;;;;11.93;8.93;;;12.20;99.90;;;;;;5074772;28;20246;-78
2023/03/25 03:19:14;;;;;;;6.68;4.75;;;12.20;99.90;;;;;;5076041;28;20312;-79
2023/03/25 03:21:50;;;;;;;13.27;9.25;;;12.20;99.90;;;;;;5069879;28;20296;-78
2023/03/25 03:24:29;;;;;;;10.93;7.47;;;12.20;99.90;;;;;;5068805;28;20243;-78
2023/03/25 03:27:00;;;;;;;23.98;14.05;;;12.20;99.90;;;;;;5075947;28;20223;-80
2023/03/25 03:29:34;;;;;;;11.50;7.85;;;12.20;99.90;;;;;;5070605;28;20225;-80
2023/03/25 03:32:10;;;;;;;12.68;7.65;;;12.30;99.90;;;;;;5075711;28;20644;-79
2023/03/25 03:34:45;;;;;;;13.57;8.23;;;12.20;99.90;;;;;;5085884;28;20219;-79
2023/03/25 03:37:15;;;;;;;23.67;18.05;;;12.20;99.90;;;;;;5095033;28;20227;-79
2023/03/25 03:39:48;;;;;;;5.75;3.63;;;12.10;99.90;;;;;;5095039;28;20224;-77
2023/03/25 03:42:18;;;;;;;3.97;2.80;;;12.00;99.90;;;;;;5093809;28;20215;-78
2023/03/25 03:44:52;;;;;;;6.82;5.43;;;12.10;99.90;;;;;;5094946;28;20566;-78
2023/03/25 03:47:26;;;;;;;11.48;7.68;;;12.00;99.90;;;;;;5095260;28;20218;-79
2023/03/25 03:49:58;;;;;;;14.85;9.45;;;12.00;99.90;;;;;;5081909;28;20247;-78
2023/03/25 03:52:28;;;;;;;25.77;16.85;;;12.00;99.90;;;;;;5087399;28;20223;-76
2023/03/25 03:55:00;;;;;;;5.90;4.90;;;12.00;99.90;;;;;;5095592;28;20219;-77
2023/03/25 03:57:32;;;;;;;5.40;3.85;;;12.00;99.90;;;;;;5090382;28;20219;-77
2023/03/25 04:00:05;;;;;;;13.68;8.38;;;12.00;99.90;;;;;;5102843;28;20235;-76
2023/03/25 04:02:38;;;;;;;2.55;2.20;;;12.00;99.90;;;;;;5091215;28;20250;-75
2023/03/25 04:05:07;;;;;;;8.20;5.57;;;12.00;99.90;;;;;;5093065;28;20684;-76
2023/03/25 04:07:40;;;;;;;2.42;2.20;;;12.00;99.90;;;;;;5092761;28;20222;-75
2023/03/25 04:10:14;;;;;;;3.05;2.22;;;12.00;99.90;;;;;;5093975;28;20316;-75
2023/03/25 04:12:47;;;;;;;4.25;1.48;;;11.90;99.90;;;;;;5094671;28;20315;-77
2023/03/25 04:15:15;;;;;;;5.35;2.83;;;11.90;99.90;;;;;;5094501;28;20227;-78
2023/03/25 04:17:42;;;;;;;7.53;4.75;;;11.90;99.90;;;;;;5063179;28;20685;-76
2023/03/25 04:20:14;;;;;;;4.35;2.22;;;11.90;99.90;;;;;;5074526;28;20220;-77
2023/03/25 04:22:44;;;;;;;6.00;2.95;;;11.90;99.90;;;;;;5074409;28;20224;-76
2023/03/25 04:25:13;;;;;;;3.05;2.75;;;11.80;99.90;;;;;;5081343;28;20563;-78
2023/03/25 04:27:47;;;;;;;11.82;8.70;;;11.80;99.90;;;;;;5091082;28;21005;-76
2023/03/25 04:30:32;;;;;;;11.77;5.88;;;11.80;99.90;;;;;;5085994;28;20300;-77
2023/03/25 04:33:00;;;;;;;4.65;3.05;;;11.80;99.90;;;;;;5093563;28;20285;-76
2023/03/25 04:35:27;;;;;;;8.57;2.58;;;11.80;99.90;;;;;;5081484;28;20222;-78
2023/03/25 04:37:56;;;;;;;3.45;1.70;;;11.80;99.90;;;;;;5088177;28;20561;-76
2023/03/25 04:40:24;;;;;;;8.77;7.13;;;11.70;99.90;;;;;;5088690;28;20224;-77
2023/03/25 04:42:52;;;;;;;3.15;2.15;;;11.70;99.90;;;;;;5084801;28;20239;-76
2023/03/25 04:45:24;;;;;;;3.70;2.88;;;11.70;99.90;;;;;;5083389;28;20289;-77
2023/03/25 04:47:54;;;;;;;8.75;3.85;;;11.70;99.90;;;;;;5077306;28;20661;-75
2023/03/25 04:50:22;;;;;;;5.10;2.95;;;11.70;99.90;;;;;;5074678;28;20232;-76
2023/03/25 04:52:51;;;;;;;7.82;5.90;;;11.60;99.90;;;;;;5075428;28;20310;-77
2023/03/25 04:55:20;;;;;;;6.85;3.20;;;11.60;99.90;;;;;;5071113;28;20224;-77
2023/03/25 04:57:50;;;;;;;5.25;4.25;;;11.60;99.90;;;;;;5053742;28;20312;-78
2023/03/25 05:00:19;;;;;;;4.82;3.63;;;11.70;99.90;;;;;;5052701;28;20670;-77
2023/03/25 05:02:51;;;;;;;3.65;1.85;;;11.70;99.90;;;;;;5053824;28;20252;-77
2023/03/25 05:05:20;;;;;;;6.88;2.88;;;11.70;99.90;;;;;;5053768;28;20240;-77
2023/03/25 05:07:49;;;;;;;19.20;12.43;;;11.60;99.90;;;;;;5058981;28;20232;-77
2023/03/25 05:10:16;;;;;;;3.55;2.00;;;11.60;99.90;;;;;;5073855;28;20231;-76
2023/03/25 05:12:43;;;;;;;6.57;3.75;;;11.60;99.90;;;;;;5073856;28;20911;-76
2023/03/25 05:15:13;;;;;;;2.67;2.47;;;11.60;99.90;;;;;;5073679;28;20685;-78
2023/03/25 05:17:40;;;;;;;28.90;12.02;;;11.60;99.90;;;;;;5070105;28;20658;-78
2023/03/25 05:20:09;;;;;;;8.25;5.80;;;11.60;99.90;;;;;;5073924;28;20301;-78
2023/03/25 05:22:37;;;;;;;8.05;4.43;;;11.60;99.90;;;;;;5093738;28;20215;-76
2023/03/25 05:25:05;;;;;;;3.55;2.00;;;11.70;99.90;;;;;;5093702;28;20330;-77
2023/03/25 05:27:35;;;;;;;28.80;16.63;;;11.60;99.90;;;;;;5092726;28;20243;-77
2023/03/25 05:30:03;;;;;;;7.72;4.88;;;11.70;99.90;;;;;;5094205;28;20219;-79
2023/03/25 05:32:33;;;;;;;3.42;2.05;;;11.70;99.90;;;;;;5094211;28;20251;-77
2023/03/25 05:35:00;;;;;;;6.30;4.28;;;11.70;99.90;;;;;;5093284;28;20227;-78
2023/03/25 05:37:28;;;;;;;10.30;6.35;;;11.70;99.90;;;;;;5093005;28;20220;-78
2023/03/25 05:39:58;;;;;;;2.47;2.28;;;11.70;99.90;;;;;;5093815;28;20227;-78
2023/03/25 05:42:26;;;;;;;5.20;3.30;;;11.80;99.90;;;;;;5093132;28;20239;-78
2023/03/25 05:44:54;;;;;;;11.77;6.13;;;11.80;99.90;;;;;;5092950;28;20225;-78
2023/03/25 05:47:22;;;;;;;8.18;4.85;;;11.80;99.90;;;;;;5092966;28;20332;-78
2023/03/25 05:49:52;;;;;;;29.17;17.95;;;11.90;99.90;;;;;;5093453;28;20321;-78
2023/03/25 05:52:23;;;;;;;24.70;18.17;;;11.90;99.90;;;;;;5093146;28;20235;-78
2023/03/25 05:54:54;;;;;;;9.65;8.05;;;12.00;99.90;;;;;;5093267;28;20293;-77
2023/03/25 05:57:29;;;;;;;3.50;3.10;;;12.00;99.90;;;;;;5092394;28;20223;-77
2023/03/25 05:59:57;;;;;;;15.18;9.23;;;12.10;99.90;;;;;;5093246;28;20222;-78
2023/03/25 06:02:24;;;;;;;7.32;5.32;;;12.10;99.90;;;;;;5093175;28;20571;-78
2023/03/25 06:04:53;;;;;;;7.35;6.28;;;12.20;99.90;;;;;;5093012;28;20302;-77
2023/03/25 06:07:21;;;;;;;8.38;5.15;;;12.20;99.90;;;;;;5092562;28;20282;-77
2023/03/25 06:09:48;;;;;;;4.65;3.88;;;12.20;99.90;;;;;;5093407;28;20249;-78
2023/03/25 06:12:18;;;;;;;10.32;8.13;;;12.20;99.90;;;;;;5092967;28;20241;-78
2023/03/25 06:14:53;;;;;;;11.65;6.93;;;12.30;99.90;;;;;;5092134;28;20586;-76
2023/03/25 06:17:22;;;;;;;9.23;5.50;;;12.20;99.90;;;;;;5093545;28;20593;-78
2023/03/25 06:19:49;;;;;;;4.95;4.03;;;12.30;99.90;;;;;;5092472;28;20219;-78
2023/03/25 06:22:20;;;;;;;13.50;9.32;;;12.20;99.90;;;;;;5093420;28;20276;-79
2023/03/25 06:24:48;;;;;;;4.35;2.42;;;12.20;99.90;;;;;;5092375;28;20276;-78
2023/03/25 06:27:17;;;;;;;17.08;10.43;;;12.20;99.90;;;;;;5083385;28;20219;-77
2023/03/25 06:29:46;;;;;;;2.97;2.08;;;12.20;99.90;;;;;;5084408;28;20238;-78
2023/03/25 06:32:15;;;;;;;3.80;2.70;;;12.20;99.90;;;;;;5105844;28;20256;-76
2023/03/25 06:34:43;;;;;;;5.18;4.53;;;12.30;99.90;;;;;;5091783;28;20220;-77
2023/03/25 06:37:11;;;;;;;2.65;1.40;;;12.30;99.90;;;;;;5092945;28;20227;-77
2023/03/25 06:39:40;;;;;;;2.08;1.80;;;12.30;99.90;;;;;;5093195;28;20223;-76
2023/03/25 06:42:10;;;;;;;4.45;1.85;;;12.30;99.90;;;;;;5095098;28;20561;-76
2023/03/25 06:44:37;;;;;;;4.90;2.65;;;12.40;99.90;;;;;;5095175;28;20223;-76
2023/03/25 06:47:05;;;;;;;2.13;1.48;;;12.40;99.90;;;;;;5099436;28;20223;-78
2023/03/25 06:49:32;;;;;;;39.17;22.80;;;12.40;99.90;;;;;;5096836;28;20223;-76
2023/03/25 06:51:59;;;;;;;6.03;5.15;;;12.40;99.90;;;;;;5098170;28;20302;-76
2023/03/25 06:54:26;;;;;;;1.95;0.95;;;12.50;99.90;;;;;;5092388;28;20234;-76
2023/03/25 06:56:55;;;;;;;1.85;1.10;;;12.50;99.90;;;;;;5091522;28;20241;-78
2023/03/25 06:59:22;;;;;;;4.15;2.70;;;12.60;99.90;;;;;;5092302;28;20219;-78
2023/03/25 07:01:49;;;;;;;2.80;1.35;;;12.60;99.90;;;;;;5091490;28;20300;-77
2023/03/25 07:04:16;;;;;;;5.18;1.90;;;12.60;99.90;;;;;;5091607;28;20257;-76
2023/03/25 07:06:43;;;;;;;3.28;1.17;;;12.70;99.90;;;;;;5097339;28;20230;-77
2023/03/25 07:09:11;;;;;;;4.80;2.65;;;12.70;99.90;;;;;;5091753;28;20227;-76
2023/03/25 07:11:38;;;;;;;2.65;1.80;;;12.70;99.90;;;;;;5091749;28;20227;-75
2023/03/25 07:14:12;;;;;;;2.05;1.33;;;12.70;99.90;;;;;;5090906;28;20642;-76
2023/03/25 07:16:50;;;;;;;3.75;1.55;;;12.70;99.90;;;;;;5088597;28;20222;-77
2023/03/25 07:19:17;;;;;;;7.38;3.10;;;12.70;99.90;;;;;;5098314;28;20227;-78
2023/03/25 07:21:44;;;;;;;1.63;1.30;;;12.70;99.90;;;;;;5088982;28;20308;-78
2023/03/25 07:24:17;;;;;;;2.72;1.52;;;12.70;99.90;;;;;;5091204;28;20235;-75
2023/03/25 07:26:45;;;;;;;5.28;1.48;;;12.80;99.90;;;;;;5091750;28;20224;-76
2023/03/25 07:29:14;;;;;;;3.20;2.15;;;12.80;99.90;;;;;;5091488;28;20223;-78
2023/03/25 07:31:45;;;;;;;2.65;2.15;;;12.80;99.90;;;;;;5091872;28;20634;-76
2023/03/25 07:34:15;;;;;;;5.25;3.00;;;12.90;99.90;;;;;;5090690;28;20219;-77
2023/03/25 07:36:42;;;;;;;2.53;2.03;;;12.90;99.90;;;;;;5088200;28;20593;-77
2023/03/25 07:39:09;;;;;;;30.75;17.05;;;12.90;99.90;;;;;;5102781;28;20223;-77
2023/03/25 07:41:36;;;;;;;5.70;5.07;;;13.00;99.90;;;;;;5094374;28;20234;-77
2023/03/25 07:44:04;;;;;;;3.33;2.63;;;13.00;99.90;;;;;;5094617;28;20223;-78
2023/03/25 07:46:33;;;;;;;3.78;3.05;;;13.10;99.90;;;;;;5095268;28;20223;-76
2023/03/25 07:49:00;;;;;;;5.28;3.63;;;13.10;99.90;;;;;;5094933;28;20229;-76
2023/03/25 07:51:27;;;;;;;6.13;3.88;;;13.10;99.90;;;;;;5073503;28;20252;-77
2023/03/25 07:53:54;;;;;;;4.57;2.70;;;13.10;99.90;;;;;;5074932;28;20315;-77
2023/03/25 07:56:24;;;;;;;4.30;3.13;;;13.20;99.90;;;;;;5072916;28;20236;-75
2023/03/25 07:58:55;;;;;;;4.72;2.92;;;13.20;99.90;;;;;;5079117;28;20265;-78
2023/03/25 08:01:48;;;;;;;2.50;1.88;;;13.20;99.90;;;;;;5074508;28;20263;-78
2023/03/25 08:04:16;;;;;;;3.38;2.72;;;13.20;99.90;;;;;;5068322;28;20314;-75
2023/03/25 08:06:43;;;;;;;4.70;3.05;;;13.30;99.90;;;;;;5074367;28;20220;-76
2023/03/25 08:09:15;;;;;;;18.45;10.93;;;13.40;99.90;;;;;;5074354;28;20286;-76
2023/03/25 08:11:51;;;;;;;4.25;3.85;;;13.50;99.90;;;;;;5073224;28;20642;-76
2023/03/25 08:14:18;;;;;;;9.93;8.00;;;13.50;99.90;;;;;;5073650;28;20680;-77
2023/03/25 08:16:46;;;;;;;5.47;3.28;;;13.50;99.90;;;;;;5074226;28;20228;-77
2023/03/25 08:19:14;;;;;;;7.87;5.07;;;13.60;99.90;;;;;;5073630;28;20224;-76
2023/03/25 08:21:42;;;;;;;5.80;3.80;;;13.70;99.90;;;;;;5079331;28;20461;-76
2023/03/25 08:24:10;;;;;;;7.50;4.43;;;13.80;99.90;;;;;;5065275;28;20498;-77
2023/03/25 08:26:37;;;;;;;9.30;6.37;;;13.80;99.90;;;;;;5073384;28;20473;-78
2023/03/25 08:29:06;;;;;;;3.07;2.80;;;13.90;99.90;;;;;;5073911;28;21013;-76
2023/03/25 08:31:37;;;;;;;11.43;4.80;;;14.00;99.90;;;;;;5073351;28;20834;-79
2023/03/25 08:34:06;;;;;;;4.00;2.97;;;14.00;99.90;;;;;;5073965;28;20826;-78
2023/03/25 08:36:33;;;;;;;8.90;5.17;;;14.10;99.90;;;;;;5073489;28;20462;-77
2023/03/25 08:39:10;;;;;;;11.33;7.90;;;14.20;99.90;;;;;;5074329;28;20467;-78
2023/03/25 08:41:42;;;;;;;5.10;2.53;;;14.20;99.90;;;;;;5073480;28;20462;-78
2023/03/25 08:44:10;;;;;;;4.20;3.40;;;14.20;99.90;;;;;;5077267;28;20475;-77
2023/03/25 08:46:40;;;;;;;9.40;5.27;;;14.30;99.90;;;;;;5075676;28;20535;-79
2023/03/25 08:49:07;;;;;;;4.70;2.97;;;14.30;99.90;;;;;;5074324;28;20565;-77
2023/03/25 08:51:34;;;;;;;3.13;1.57;;;14.40;99.90;;;;;;5074417;28;20535;-77
2023/03/25 08:54:03;;;;;;;5.87;4.07;;;14.40;99.90;;;;;;5073857;28;21065;-78
2023/03/25 08:56:30;;;;;;;35.73;20.37;;;14.50;99.90;;;;;;5074155;28;20490;-77
2023/03/25 08:59:00;;;;;;;2.70;2.50;;;14.50;99.90;;;;;;5073918;28;20952;-78
2023/03/25 09:01:30;;;;;;;3.80;2.97;;;14.70;99.90;;;;;;5074024;28;20804;-79
2023/03/25 09:03:57;;;;;;;4.13;3.30;;;14.70;99.90;;;;;;5072317;28;20458;-78
2023/03/25 09:06:25;;;;;;;8.83;3.83;;;14.80;99.90;;;;;;5073286;28;20785;-79
2023/03/25 09:08:57;;;;;;;3.37;2.53;;;14.70;99.90;;;;;;5072804;28;20554;-78
2023/03/25 09:11:25;;;;;;;15.53;11.93;;;14.70;99.90;;;;;;5073152;28;20528;-76
2023/03/25 09:13:54;;;;;;;5.53;2.10;;;14.80;99.90;;;;;;5073069;28;20588;-78
2023/03/25 09:16:21;;;;;;;4.80;3.53;;;14.90;99.90;;;;;;5072653;28;20523;-77
2023/03/25 09:18:53;;;;;;;3.20;2.53;;;14.90;99.90;;;;;;5072604;28;20960;-78
2023/03/25 09:21:20;;;;;;;5.57;3.60;;;15.00;99.90;;;;;;5071772;28;20788;-79
2023/03/25 09:23:47;;;;;;;12.80;7.00;;;15.00;99.90;;;;;;5078385;28;20520;-78
2023/03/25 09:26:27;;;;;;;4.47;3.00;;;15.00;99.90;;;;;;5070135;28;20990;-78
2023/03/25 09:28:55;;;;;;;3.93;2.17;;;15.00;99.90;;;;;;5070552;28;20466;-77
2023/03/25 09:31:26;;;;;;;2.00;1.63;;;14.90;99.90;;;;;;5073928;28;21004;-77
2023/03/25 09:33:55;;;;;;;3.50;1.67;;;14.90;99.90;;;;;;5073432;28;20474;-76
2023/03/25 09:36:22;;;;;;;5.40;2.00;;;14.80;99.90;;;;;;5065001;28;20998;-77
2023/03/25 09:38:49;;;;;;;10.00;7.20;;;14.70;99.90;;;;;;5069676;28;20488;-77
2023/03/25 09:41:43;;;;;;;6.83;4.53;;;14.70;99.90;;;;;;5073321;28;20523;-76
2023/03/25 09:44:16;;;;;;;5.10;2.80;;;14.50;99.90;;;;;;5072818;28;20535;-76
2023/03/25 09:46:44;;;;;;;3.07;2.10;;;14.40;99.90;;;;;;5072415;28;20462;-76
2023/03/25 09:49:20;;;;;;;4.40;3.40;;;14.30;99.90;;;;;;5084244;28;20474;-76
2023/03/25 09:51:54;;;;;;;3.43;2.67;;;14.30;99.90;;;;;;5105213;28;20540;-76
2023/03/25 09:54:28;;;;;;;3.50;2.10;;;14.20;99.90;;;;;;5092061;28;20464;-77
2023/03/25 09:57:05;;;;;;;3.27;2.60;;;14.20;99.90;;;;;;5093109;28;20559;-77
2023/03/25 09:59:45;;;;;;;2.83;2.53;;;14.20;99.90;;;;;;5092201;28;20505;-79
2023/03/25 10:02:30;;;;;;;2.33;2.00;;;14.20;99.90;;;;;;5090464;28;20469;-77
2023/03/25 10:05:23;;;;;;;5.97;3.50;;;14.10;99.90;;;;;;5093458;28;20545;-78
2023/03/25 10:08:12;;;;;;;2.97;2.70;;;14.20;99.90;;;;;;5092440;28;20462;-79
2023/03/25 10:10:50;;;;;;;3.00;2.13;;;14.20;99.90;;;;;;5092965;28;20489;-77
2023/03/25 10:13:24;;;;;;;11.03;6.70;;;14.20;99.90;;;;;;5091929;28;20462;-75
2023/03/25 10:15:57;;;;;;;4.15;2.30;;;14.20;99.90;;;;;;5091874;28;20555;-75
2023/03/25 10:18:43;;;;;;;6.87;4.90;;;14.30;99.90;;;;;;5090173;28;20664;-77
2023/03/25 10:21:22;;;;;;;7.00;4.20;;;14.30;99.90;;;;;;5092138;28;20457;-76
2023/03/25 10:23:58;;;;;;;2.37;2.10;;;14.30;99.90;;;;;;5091677;28;20465;-77
2023/03/25 10:26:35;;;;;;;2.90;2.60;;;14.40;99.90;;;;;;5091597;28;20551;-76
2023/03/25 10:29:07;;;;;;;3.73;2.67;;;14.40;99.90;;;;;;5091712;28;20538;-78
2023/03/25 10:31:39;;;;;;;4.23;2.33;;;14.50;99.90;;;;;;5092429;28;20453;-78
2023/03/25 10:34:10;;;;;;;5.63;3.70;;;14.50;99.90;;;;;;5091970;28;20527;-76
2023/03/25 10:36:48;;;;;;;3.90;2.90;;;14.60;99.90;;;;;;5092866;28;20496;-77
2023/03/25 10:39:20;;;;;;;3.20;2.33;;;14.60;99.90;;;;;;5091517;28;20473;-77
2023/03/25 10:41:56;;;;;;;4.83;2.50;;;14.70;99.90;;;;;;5092313;28;20496;-75
2023/03/25 10:44:32;;;;;;;8.20;4.50;;;14.70;99.90;;;;;;5091067;28;20467;-76
2023/03/25 10:47:04;;;;;;;4.27;2.90;;;14.80;99.90;;;;;;5092063;28;20496;-76
2023/03/25 10:49:33;;;;;;;6.00;4.40;;;14.80;99.90;;;;;;5091762;28;20465;-75
2023/03/25 10:52:01;;;;;;;6.63;3.50;;;14.90;99.90;;;;;;5092427;28;20814;-77
2023/03/25 10:54:31;;;;;;;4.73;3.50;;;14.90;99.90;;;;;;5091059;28;20567;-76
2023/03/25 10:57:09;;;;;;;4.40;3.10;;;15.00;99.90;;;;;;5092283;28;20524;-79
2023/03/25 10:59:44;;;;;;;4.47;1.67;;;15.00;99.90;;;;;;5091251;28;20476;-77
2023/03/25 11:02:19;;;;;;;3.50;3.20;;;15.00;99.90;;;;;;5091911;28;20471;-77
2023/03/25 11:04:50;;;;;;;1.83;1.40;;;15.10;99.90;;;;;;5090837;28;20919;-77
2023/03/25 11:07:20;;;;;;;3.77;2.30;;;15.00;99.90;;;;;;5092200;28;20489;-77
2023/03/25 11:09:50;;;;;;;3.00;1.97;;;15.10;99.90;;;;;;5091506;28;20856;-79
2023/03/25 11:12:27;;;;;;;13.10;7.40;;;15.20;99.90;;;;;;5094772;28;20556;-76
2023/03/25 11:15:01;;;;;;;12.10;8.00;;;15.20;99.90;;;;;;5086014;28;20782;-77
2023/03/25 11:17:32;;;;;;;4.07;3.30;;;15.20;99.90;;;;;;5096605;28;20967;-76
2023/03/25 11:20:09;;;;;;;2.20;1.47;;;15.20;99.90;;;;;;5096950;28;20457;-77
2023/03/25 11:22:38;;;;;;;3.17;2.87;;;15.20;99.90;;;;;;5095678;28;20457;-77
2023/03/25 11:25:12;;;;;;;4.03;2.83;;;15.20;99.90;;;;;;5100636;28;20465;-76
2023/03/25 11:27:48;;;;;;;2.43;1.27;;;15.20;99.90;;;;;;5108462;28;20466;-76
2023/03/25 11:30:19;;;;;;;5.00;4.50;;;15.30;99.90;;;;;;5112402;28;20490;-78
2023/03/25 11:33:06;;;;;;;2.10;1.90;;;15.30;99.90;;;;;;5113364;28;20461;-77
2023/03/25 11:35:37;;;;;;;2.63;2.43;;;15.30;99.90;;;;;;5115452;28;20467;-78
2023/03/25 11:38:15;;;;;;;3.50;2.07;;;15.10;99.90;;;;;;5107729;28;20794;-78
2023/03/25 11:40:53;;;;;;;3.33;3.03;;;15.00;99.90;;;;;;5097081;28;21019;-76
2023/03/25 11:43:26;;;;;;;2.63;2.40;;;14.90;99.90;;;;;;5096507;28;21018;-75
2023/03/25 11:45:54;;;;;;;2.73;2.20;;;14.70;99.90;;;;;;5085371;28;20896;-76
2023/03/25 11:48:24;;;;;;;1.60;1.20;;;14.70;99.90;;;;;;5096612;28;20935;-77
2023/03/25 11:50:56;;;;;;;1.30;1.20;;;14.60;99.90;;;;;;5093985;28;20516;-77
2023/03/25 11:53:26;;;;;;;1.87;1.30;;;14.50;99.90;;;;;;5095308;28;20469;-76
2023/03/25 11:55:56;;;;;;;1.63;1.43;;;14.40;99.90;;;;;;5095525;28;20557;-75
2023/03/25 11:58:29;;;;;;;1.50;1.20;;;14.30;99.90;;;;;;5095289;28;20487;-76
2023/03/25 12:01:18;;;;;;;2.03;1.80;;;14.30;99.90;;;;;;5094889;28;20457;-77
2023/03/25 12:03:45;;;;;;;3.17;1.87;;;14.20;99.90;;;;;;5096061;28;20485;-77
2023/03/25 12:06:23;;;;;;;2.97;2.40;;;14.30;99.90;;;;;;5087267;28;20980;-78
2023/03/25 12:08:57;;;;;;;2.60;1.50;;;14.30;99.90;;;;;;5078410;28;20477;-78
2023/03/25 12:11:28;;;;;;;1.77;1.47;;;14.30;99.90;;;;;;5075868;28;20877;-78
2023/03/25 12:14:29;;;;;;;1.80;1.70;;;14.40;99.90;;;;;;5073803;28;20475;-78
2023/03/25 12:17:05;;;;;;;5.50;3.67;;;14.50;99.90;;;;;;5074394;28;20488;-79
2023/03/25 12:19:43;;;;;;;2.60;2.40;;;14.60;99.90;;;;;;5074169;28;20482;-78
2023/03/25 12:22:21;;;;;;;6.30;4.20;;;14.60;99.90;;;;;;5074182;28;20814;-78
2023/03/25 12:25:09;;;;;;;2.90;2.60;;;14.60;99.90;;;;;;5073842;28;20470;-78
2023/03/25 12:27:48;;;;;;;2.80;2.47;;;14.60;99.90;;;;;;5074487;28;20577;-78
2023/03/25 12:30:29;;;;;;;3.20;1.87;;;14.70;99.90;;;;;;5073945;28;20470;-78
2023/03/25 12:33:07;;;;;;;2.70;1.23;;;14.70;99.90;;;;;;5073270;28;20474;-77
2023/03/25 12:35:41;;;;;;;7.40;5.30;;;14.80;99.90;;;;;;5073832;28;20511;-78
2023/03/25 12:38:28;;;;;;;2.87;1.70;;;14.80;99.90;;;;;;5074056;28;20816;-77
2023/03/25 12:41:17;;;;;;;1.77;1.37;;;14.90;99.90;;;;;;5073085;28;20568;-75
2023/03/25 12:44:05;;;;;;;2.17;1.40;;;15.00;99.90;;;;;;5073355;28;20624;-76
2023/03/25 12:46:58;;;;;;;1.83;1.43;;;15.00;99.90;;;;;;5075077;28;20477;-78
2023/03/25 12:49:42;;;;;;;1.83;1.73;;;15.10;99.90;;;;;;5074085;28;20471;-78
2023/03/25 12:52:15;;;;;;;2.57;1.50;;;15.10;99.90;;;;;;5074758;28;20474;-76
2023/03/25 12:54:56;;;;;;;2.13;1.00;;;15.20;99.90;;;;;;5077996;28;20461;-78
2023/03/25 12:57:42;;;;;;;1.53;0.90;;;15.10;99.90;;;;;;5078020;28;21009;-76
2023/03/25 13:00:37;;;;;;;1.80;1.40;;;15.10;99.90;;;;;;5074070;28;20554;-78
2023/03/25 13:03:39;;;;;;;2.40;1.97;;;15.20;99.90;;;;;;5075051;28;20458;-77
2023/03/25 13:06:22;;;;;;;2.63;1.67;;;15.20;99.90;;;;;;5039776;28;20531;-76
2023/03/25 13:08:55;;;;;;;2.23;2.00;;;15.20;99.90;;;;;;5069311;28;20478;-76
2023/03/25 13:11:27;;;;;;;4.57;2.90;;;15.20;99.90;;;;;;5074979;28;20454;-76